Time;durP1;ratioP1;P1;durP2;ratioP2;P2;SDS_P1;SDS_P2;PMS_P1;PMS_P2;Temp;Humidity;BMP_temperature;BMP_pressure;BME280_temperature;BME280_humidity;BME280_pressure;Samples;Min_cycle;Max_cycle;Signal;HPM_P1;HPM_P2
2022/12/31 00:02:18;;;;;;;0.77;0.28;;;;;;;;;;5067792;28;20056;-78
2022/12/31 00:04:45;;;;;;;0.45;0.30;;;;;;;;;;5059820;28;20060;-79
2022/12/31 00:07:11;;;;;;;0.68;0.30;;;;;;;;;;5070175;28;20202;-79
2022/12/31 00:09:37;;;;;;;0.30;0.20;;;;;;;;;;5073014;28;20420;-78
2022/12/31 00:12:04;;;;;;;0.32;0.20;;;;;;;;;;5086396;28;20135;-76
2022/12/31 00:14:30;;;;;;;0.30;0.30;;;;;;;;;;5066493;28;20147;-78
2022/12/31 00:16:57;;;;;;;0.43;0.30;;;;;;;;;;5068607;28;20404;-80
2022/12/31 00:19:23;;;;;;;0.77;0.30;;;;;;;;;;5065070;28;20106;-79
2022/12/31 00:21:49;;;;;;;0.57;0.30;;;;;;;;;;5068592;28;20147;-79
2022/12/31 00:24:16;;;;;;;0.82;0.30;;;;;;;;;;5069600;28;20142;-77
2022/12/31 00:26:42;;;;;;;1.42;0.17;;;;;;;;;;5065106;28;20045;-79
2022/12/31 00:29:09;;;;;;;0.30;0.28;;;;;;;;;;5062060;28;20516;-80
2022/12/31 00:31:37;;;;;;;0.50;0.22;;;;;;;;;;5074069;28;20058;-80
2022/12/31 00:34:04;;;;;;;0.88;0.30;;;;;;;;;;5047681;28;20404;-81
2022/12/31 00:36:31;;;;;;;0.40;0.30;;;;;;;;;;5073447;28;20052;-80
2022/12/31 00:38:58;;;;;;;0.38;0.20;;;;;;;;;;5073455;28;20044;-80
2022/12/31 00:41:25;;;;;;;0.40;0.30;;;;;;;;;;5073786;28;20048;-80
2022/12/31 00:43:52;;;;;;;0.52;0.20;;;;;;;;;;5070399;28;20091;-79
2022/12/31 00:46:19;;;;;;;0.52;0.30;;;;;;;;;;5074313;28;20351;-79
2022/12/31 00:48:45;;;;;;;1.13;0.30;;;;;;;;;;5056530;28;20079;-80
2022/12/31 00:51:13;;;;;;;0.20;0.20;;;;;;;;;;5073867;28;20048;-79
2022/12/31 00:53:40;;;;;;;0.40;0.30;;;;;;;;;;5075236;28;20059;-80
2022/12/31 00:56:12;;;;;;;0.63;0.30;;;;;;;;;;5071975;28;20049;-79
2022/12/31 00:58:38;;;;;;;0.43;0.30;;;;;;;;;;5077096;28;20063;-80
2022/12/31 01:01:09;;;;;;;1.35;0.22;;;;;;;;;;5072037;28;20513;-80
2022/12/31 01:03:36;;;;;;;0.80;0.20;;;;;;;;;;5065443;28;20063;-79
2022/12/31 01:06:02;;;;;;;0.20;0.20;;;;;;;;;;5065644;28;20114;-79
2022/12/31 01:08:29;;;;;;;0.85;0.38;;;;;;;;;;5067488;28;20062;-78
2022/12/31 01:13:40;;;;;;;0.20;0.20;;;;;;;;;;5059382;28;20545;-78
2022/12/31 01:16:08;;;;;;;0.32;0.20;;;;;;;;;;5048080;28;20059;-77
2022/12/31 01:18:34;;;;;;;1.80;0.30;;;;;;;;;;5048124;28;20056;-79
2022/12/31 01:21:02;;;;;;;0.40;0.20;;;;;;;;;;5052979;28;20064;-78
2022/12/31 01:23:28;;;;;;;0.63;0.30;;;;;;;;;;5067292;28;20083;-82
2022/12/31 01:25:55;;;;;;;0.93;0.25;;;;;;;;;;5067815;28;20048;-78
2022/12/31 01:28:21;;;;;;;0.28;0.20;;;;;;;;;;5071293;28;20055;-79
2022/12/31 01:30:48;;;;;;;0.30;0.20;;;;;;;;;;5071424;28;20048;-78
2022/12/31 01:33:14;;;;;;;0.38;0.17;;;;;;;;;;5066643;28;20062;-79
2022/12/31 01:35:41;;;;;;;0.17;0.10;;;;;;;;;;5072725;28;20318;-79
2022/12/31 01:38:07;;;;;;;0.30;0.30;;;;;;;;;;5076750;28;20130;-80
2022/12/31 01:40:38;;;;;;;0.25;0.20;;;;;;;;;;5080437;28;20076;-79
2022/12/31 01:43:15;;;;;;;0.28;0.20;;;;;;;;;;5076643;28;20057;-79
2022/12/31 01:45:46;;;;;;;0.28;0.17;;;;;;;;;;5075374;28;20564;-79
2022/12/31 01:48:14;;;;;;;0.10;0.10;;;;;;;;;;5057351;28;20129;-79
2022/12/31 01:50:41;;;;;;;0.55;0.20;;;;;;;;;;5062618;28;20040;-79
2022/12/31 01:53:09;;;;;;;0.20;0.10;;;;;;;;;;5077103;28;20049;-79
2022/12/31 01:55:39;;;;;;;0.85;0.30;;;;;;;;;;5069722;28;20067;-79
2022/12/31 01:58:09;;;;;;;2.22;0.30;;;;;;;;;;5072653;28;20052;-79
2022/12/31 02:00:36;;;;;;;0.40;0.22;;;;;;;;;;5078784;28;20078;-80
2022/12/31 02:03:04;;;;;;;0.30;0.30;;;;;;;;;;5072332;28;20416;-80
2022/12/31 02:05:35;;;;;;;0.57;0.30;;;;;;;;;;5077933;28;20055;-77
2022/12/31 02:08:02;;;;;;;0.88;0.30;;;;;;;;;;5072187;28;20040;-79
2022/12/31 02:10:31;;;;;;;0.22;0.20;;;;;;;;;;5071306;28;20512;-79
2022/12/31 02:12:57;;;;;;;0.88;0.30;;;;;;;;;;5071195;28;20054;-80
2022/12/31 02:15:37;;;;;;;0.10;0.10;;;;;;;;;;5072951;28;20059;-79
2022/12/31 02:18:09;;;;;;;0.40;0.20;;;;;;;;;;5075465;28;20048;-79
2022/12/31 02:20:51;;;;;;;0.20;0.20;;;;;;;;;;5076650;28;20053;-80
2022/12/31 02:23:17;;;;;;;0.30;0.20;;;;;;;;;;5078648;28;20048;-80
2022/12/31 02:25:47;;;;;;;0.30;0.20;;;;;;;;;;5078311;28;20049;-79
2022/12/31 02:28:32;;;;;;;0.80;0.30;;;;;;;;;;5080105;28;20058;-80
2022/12/31 02:31:19;;;;;;;0.40;0.10;;;;;;;;;;5076242;28;20141;-79
2022/12/31 02:33:55;;;;;;;0.38;0.10;;;;;;;;;;5053382;28;20048;-79
2022/12/31 02:36:24;;;;;;;0.28;0.10;;;;;;;;;;5076034;28;20053;-80
2022/12/31 02:38:51;;;;;;;0.30;0.30;;;;;;;;;;5076162;28;20050;-79
2022/12/31 02:44:25;;;;;;;0.20;0.20;;;;;;;;;;5075299;28;20096;-80
2022/12/31 02:46:52;;;;;;;0.30;0.10;;;;;;;;;;5076665;28;20048;-81
2022/12/31 02:49:38;;;;;;;0.20;0.20;;;;;;;;;;5075708;28;20051;-80
2022/12/31 02:52:07;;;;;;;0.10;0.10;;;;;;;;;;5060735;28;20371;-80
2022/12/31 02:54:52;;;;;;;0.20;0.20;;;;;;;;;;5073933;28;20170;-80
2022/12/31 02:57:45;;;;;;;0.10;0.10;;;;;;;;;;5074883;28;20052;-80
2022/12/31 03:03:00;;;;;;;0.10;0.10;;;;;;;;;;5072650;28;20044;-80
2022/12/31 03:05:28;;;;;;;0.35;0.20;;;;;;;;;;5073475;28;20052;-80
2022/12/31 03:07:55;;;;;;;0.82;0.10;;;;;;;;;;5075509;28;20075;-80
2022/12/31 03:10:21;;;;;;;0.30;0.20;;;;;;;;;;5072830;28;20060;-79
2022/12/31 03:12:48;;;;;;;0.10;0.10;;;;;;;;;;5074421;28;20075;-80
2022/12/31 03:15:23;;;;;;;0.20;0.20;;;;;;;;;;5073175;28;20079;-80
2022/12/31 03:17:52;;;;;;;0.25;0.17;;;;;;;;;;5074355;28;20049;-80
2022/12/31 03:23:07;;;;;;;0.13;0.10;;;;;;;;;;5075776;28;20041;-81
2022/12/31 03:25:42;;;;;;;2.08;0.10;;;;;;;;;;5072026;28;20071;-80
2022/12/31 03:28:13;;;;;;;0.10;0.10;;;;;;;;;;5076461;28;20045;-80
2022/12/31 03:30:41;;;;;;;0.68;0.20;;;;;;;;;;5055487;28;20051;-80
2022/12/31 03:33:08;;;;;;;0.10;0.10;;;;;;;;;;5051612;28;20051;-80
2022/12/31 03:35:36;;;;;;;0.30;0.20;;;;;;;;;;5061095;28;20097;-80
2022/12/31 03:38:03;;;;;;;0.20;0.13;;;;;;;;;;5075842;28;20048;-80
2022/12/31 03:40:30;;;;;;;0.22;0.20;;;;;;;;;;5074863;28;20156;-80
2022/12/31 03:42:58;;;;;;;0.47;0.10;;;;;;;;;;5072240;28;20051;-81
2022/12/31 03:45:24;;;;;;;0.68;0.30;;;;;;;;;;5077679;28;20052;-80
2022/12/31 03:47:51;;;;;;;0.40;0.15;;;;;;;;;;5076213;28;20083;-80
2022/12/31 03:50:17;;;;;;;0.45;0.30;;;;;;;;;;5076436;28;20471;-78
2022/12/31 03:52:44;;;;;;;0.22;0.20;;;;;;;;;;5075754;28;20526;-79
2022/12/31 03:55:11;;;;;;;3.05;0.20;;;;;;;;;;5073426;28;20044;-80
2022/12/31 03:57:38;;;;;;;0.43;0.20;;;;;;;;;;5074617;28;20056;-80
2022/12/31 04:00:05;;;;;;;0.30;0.20;;;;;;;;;;5074518;28;20139;-79
2022/12/31 04:02:32;;;;;;;0.10;0.10;;;;;;;;;;5070542;28;20059;-79
2022/12/31 04:04:58;;;;;;;0.55;0.20;;;;;;;;;;5074108;28;20087;-79
2022/12/31 04:07:25;;;;;;;0.20;0.20;;;;;;;;;;5073782;28;20045;-78
2022/12/31 04:09:51;;;;;;;0.90;0.28;;;;;;;;;;5061709;28;20101;-77
2022/12/31 04:12:19;;;;;;;0.90;0.20;;;;;;;;;;5071614;28;20048;-76
2022/12/31 04:14:45;;;;;;;0.10;0.10;;;;;;;;;;5067914;28;20048;-76
2022/12/31 04:17:11;;;;;;;0.20;0.20;;;;;;;;;;5069322;28;20514;-78
2022/12/31 04:19:38;;;;;;;0.95;0.20;;;;;;;;;;5070178;28;20087;-78
2022/12/31 04:22:04;;;;;;;0.30;0.20;;;;;;;;;;5070445;28;20380;-78
2022/12/31 04:24:31;;;;;;;0.28;0.20;;;;;;;;;;5070179;28;20063;-75
2022/12/31 04:26:57;;;;;;;0.20;0.20;;;;;;;;;;5073041;28;20048;-77
2022/12/31 04:29:32;;;;;;;0.10;0.10;;;;;;;;;;5072496;28;20053;-78
2022/12/31 04:31:59;;;;;;;0.43;0.10;;;;;;;;;;5072030;28;20045;-79
2022/12/31 04:34:25;;;;;;;0.45;0.17;;;;;;;;;;5071894;28;20520;-79
2022/12/31 04:36:51;;;;;;;0.45;0.17;;;;;;;;;;5075992;28;20108;-79
2022/12/31 04:39:18;;;;;;;1.00;0.20;;;;;;;;;;5073867;28;20087;-78
2022/12/31 04:41:44;;;;;;;0.45;0.10;;;;;;;;;;5074007;28;20076;-78
2022/12/31 04:44:11;;;;;;;0.10;0.10;;;;;;;;;;5070366;28;20148;-78
2022/12/31 04:46:38;;;;;;;0.10;0.10;;;;;;;;;;5070402;28;20140;-80
2022/12/31 04:49:04;;;;;;;1.63;0.20;;;;;;;;;;5071620;28;20272;-79
2022/12/31 04:51:30;;;;;;;0.52;0.20;;;;;;;;;;5071073;28;20301;-81
2022/12/31 04:53:57;;;;;;;1.73;0.20;;;;;;;;;;5068615;28;20468;-79
2022/12/31 04:56:24;;;;;;;0.43;0.20;;;;;;;;;;5069957;28;20059;-79
2022/12/31 04:58:50;;;;;;;0.20;0.10;;;;;;;;;;5069526;28;20140;-79
2022/12/31 05:01:17;;;;;;;0.52;0.20;;;;;;;;;;5066932;28;20139;-79
2022/12/31 05:03:43;;;;;;;0.20;0.10;;;;;;;;;;5066392;28;20052;-80
2022/12/31 05:06:11;;;;;;;1.00;0.20;;;;;;;;;;5070277;28;20052;-79
2022/12/31 05:08:38;;;;;;;1.73;0.10;;;;;;;;;;5072000;28;20041;-79
2022/12/31 05:11:05;;;;;;;0.10;0.10;;;;;;;;;;5078726;28;20057;-80
2022/12/31 05:13:31;;;;;;;0.30;0.20;;;;;;;;;;5073770;28;20627;-80
2022/12/31 05:15:59;;;;;;;0.10;0.10;;;;;;;;;;5069823;28;20499;-79
2022/12/31 05:18:26;;;;;;;0.95;0.20;;;;;;;;;;5053312;28;20136;-79
2022/12/31 05:20:52;;;;;;;0.10;0.10;;;;;;;;;;5068623;28;20055;-78
2022/12/31 05:23:19;;;;;;;0.35;0.10;;;;;;;;;;5045700;28;20577;-79
2022/12/31 05:25:46;;;;;;;0.30;0.20;;;;;;;;;;5050572;28;20059;-81
2022/12/31 05:28:13;;;;;;;0.47;0.25;;;;;;;;;;5070459;28;20075;-78
2022/12/31 05:30:40;;;;;;;0.30;0.20;;;;;;;;;;5072116;28;20049;-79
2022/12/31 05:33:06;;;;;;;0.15;0.15;;;;;;;;;;5071829;28;20052;-80
2022/12/31 05:35:33;;;;;;;1.23;0.20;;;;;;;;;;5073892;28;20435;-79
2022/12/31 05:37:59;;;;;;;0.22;0.20;;;;;;;;;;5074982;28;20062;-80
2022/12/31 05:40:27;;;;;;;0.30;0.20;;;;;;;;;;5071057;28;20084;-80
2022/12/31 05:42:53;;;;;;;0.77;0.20;;;;;;;;;;5072962;28;20449;-80
2022/12/31 05:45:20;;;;;;;0.10;0.10;;;;;;;;;;5071754;28;20116;-80
2022/12/31 05:47:55;;;;;;;0.22;0.20;;;;;;;;;;5070665;28;20048;-80
2022/12/31 05:50:21;;;;;;;0.70;0.30;;;;;;;;;;5071577;28;20070;-79
2022/12/31 05:52:48;;;;;;;0.30;0.20;;;;;;;;;;5069838;28;20128;-81
2022/12/31 05:55:14;;;;;;;2.88;0.30;;;;;;;;;;5072654;28;20044;-80
2022/12/31 05:57:41;;;;;;;0.63;0.20;;;;;;;;;;5072366;28;20194;-80
2022/12/31 06:00:08;;;;;;;0.30;0.30;;;;;;;;;;5071149;28;20528;-80
2022/12/31 06:02:35;;;;;;;0.45;0.30;;;;;;;;;;5067188;28;20052;-79
2022/12/31 06:05:01;;;;;;;2.47;0.32;;;;;;;;;;5069159;28;20687;-80
2022/12/31 06:07:28;;;;;;;0.95;0.22;;;;;;;;;;5071877;28;20576;-80
2022/12/31 06:09:54;;;;;;;1.80;0.43;;;;;;;;;;5069665;28;20053;-79
2022/12/31 06:12:20;;;;;;;0.90;0.38;;;;;;;;;;5071093;28;20052;-79
2022/12/31 06:14:47;;;;;;;1.83;0.40;;;;;;;;;;5070852;28;20068;-79
2022/12/31 06:17:13;;;;;;;2.30;0.40;;;;;;;;;;5069504;28;20072;-79
2022/12/31 06:19:40;;;;;;;0.93;0.30;;;;;;;;;;5070964;28;20136;-79
2022/12/31 06:22:06;;;;;;;0.32;0.30;;;;;;;;;;5072027;28;20045;-78
2022/12/31 06:24:32;;;;;;;1.42;0.35;;;;;;;;;;5051063;28;20049;-78
2022/12/31 06:26:59;;;;;;;0.43;0.30;;;;;;;;;;5071415;28;20454;-79
2022/12/31 06:29:25;;;;;;;2.95;0.30;;;;;;;;;;5071060;28;20048;-78
2022/12/31 06:31:52;;;;;;;1.48;0.32;;;;;;;;;;5071141;28;20051;-79
2022/12/31 06:34:18;;;;;;;0.90;0.40;;;;;;;;;;5080959;28;20060;-79
2022/12/31 06:36:45;;;;;;;0.30;0.30;;;;;;;;;;5085753;28;20170;-78
2022/12/31 06:39:11;;;;;;;3.72;0.40;;;;;;;;;;5085697;28;20100;-78
2022/12/31 06:41:37;;;;;;;1.10;0.50;;;;;;;;;;5083820;28;20044;-78
2022/12/31 06:44:04;;;;;;;1.95;0.57;;;;;;;;;;5056790;28;20140;-80
2022/12/31 06:46:30;;;;;;;0.85;0.40;;;;;;;;;;5075633;28;20156;-79
2022/12/31 06:48:57;;;;;;;1.27;0.40;;;;;;;;;;5071933;28;20074;-80
2022/12/31 06:51:23;;;;;;;1.70;0.20;;;;;;;;;;5071865;28;20128;-79
2022/12/31 06:53:50;;;;;;;2.35;0.70;;;;;;;;;;5070797;28;20131;-79
2022/12/31 06:56:27;;;;;;;0.93;0.35;;;;;;;;;;5066523;28;20049;-78
2022/12/31 06:58:59;;;;;;;1.00;0.38;;;;;;;;;;5068756;28;20541;-79
2022/12/31 07:01:29;;;;;;;3.30;0.47;;;;;;;;;;5051646;28;20556;-79
2022/12/31 07:04:02;;;;;;;0.52;0.32;;;;;;;;;;5072295;28;20056;-80
2022/12/31 07:06:28;;;;;;;0.68;0.32;;;;;;;;;;5075784;28;20067;-79
2022/12/31 07:08:54;;;;;;;1.27;0.40;;;;;;;;;;5089872;28;20047;-79
2022/12/31 07:11:22;;;;;;;0.98;0.40;;;;;;;;;;5075432;28;20055;-78
2022/12/31 07:13:51;;;;;;;0.77;0.30;;;;;;;;;;5061912;28;20527;-79
2022/12/31 07:16:18;;;;;;;0.52;0.32;;;;;;;;;;5069555;28;20044;-78
2022/12/31 07:19:03;;;;;;;1.73;0.30;;;;;;;;;;5066732;28;20055;-80
2022/12/31 07:21:35;;;;;;;1.23;0.40;;;;;;;;;;5055674;28;20140;-79
2022/12/31 07:24:02;;;;;;;0.77;0.40;;;;;;;;;;5076174;28;20102;-79
2022/12/31 07:26:55;;;;;;;2.22;0.40;;;;;;;;;;5059864;28;20680;-81
2022/12/31 07:29:37;;;;;;;0.80;0.30;;;;;;;;;;5076923;28;20052;-79
2022/12/31 07:32:36;;;;;;;2.53;0.40;;;;;;;;;;5079934;28;20528;-81
2022/12/31 07:35:03;;;;;;;4.03;1.50;;;;;;;;;;5021782;28;20049;-79
2022/12/31 07:37:29;;;;;;;0.88;0.30;;;;;;;;;;5076225;28;20098;-79
2022/12/31 07:40:02;;;;;;;2.33;0.65;;;;;;;;;;5066391;28;20126;-77
2022/12/31 07:42:34;;;;;;;3.28;0.50;;;;;;;;;;5066824;28;20645;-77
2022/12/31 07:45:15;;;;;;;1.00;0.40;;;;;;;;;;5078012;28;20044;-81
2022/12/31 07:47:42;;;;;;;2.60;0.55;;;;;;;;;;5088408;28;20050;-81
2022/12/31 07:50:15;;;;;;;1.15;0.40;;;;;;;;;;5077639;28;20051;-81
2022/12/31 07:52:42;;;;;;;0.80;0.32;;;;;;;;;;5077941;28;20053;-80
2022/12/31 07:55:09;;;;;;;2.75;0.50;;;;;;;;;;5078130;28;20048;-81
2022/12/31 07:57:58;;;;;;;1.35;0.43;;;;;;;;;;5087024;28;20055;-80
2022/12/31 08:00:24;;;;;;;0.65;0.40;;;;;;;;;;5077120;28;20487;-81
2022/12/31 08:03:16;;;;;;;1.35;0.50;;;;;;;;;;5074120;28;20098;-81
2022/12/31 08:05:42;;;;;;;1.23;0.30;;;;;;;;;;5076790;28;20301;-80
2022/12/31 08:08:21;;;;;;;1.35;0.38;;;;;;;;;;5074912;28;20488;-81
2022/12/31 08:10:58;;;;;;;2.85;0.50;;;;;;;;;;5074278;28;20044;-80
2022/12/31 08:13:24;;;;;;;1.70;0.60;;;;;;;;;;5071871;28;20139;-80
2022/12/31 08:15:51;;;;;;;1.27;0.40;;;;;;;;;;5069928;28;20112;-79
2022/12/31 08:18:17;;;;;;;1.95;0.60;;;;;;;;;;5056350;28;20062;-81
2022/12/31 08:20:59;;;;;;;1.05;0.50;;;;;;;;;;5071851;28;20124;-79
2022/12/31 08:23:35;;;;;;;0.80;0.50;;;;;;;;;;5069955;28;20049;-80
2022/12/31 08:26:17;;;;;;;1.15;0.43;;;;;;;;;;5070767;28;20052;-79
2022/12/31 08:28:55;;;;;;;0.40;0.35;;;;;;;;;;5068596;28;20040;-79
2022/12/31 08:31:32;;;;;;;0.88;0.50;;;;;;;;;;5071363;28;20040;-81
2022/12/31 08:34:17;;;;;;;1.38;0.50;;;;;;;;;;5067106;28;20044;-80
2022/12/31 08:36:51;;;;;;;0.63;0.40;;;;;;;;;;5069134;28;20108;-81
2022/12/31 08:39:24;;;;;;;1.88;0.60;;;;;;;;;;5070904;28;20055;-78
2022/12/31 08:41:53;;;;;;;0.50;0.40;;;;;;;;;;5069174;28;20040;-79
2022/12/31 08:44:25;;;;;;;0.65;0.40;;;;;;;;;;5069060;28;20060;-80
2022/12/31 08:46:56;;;;;;;1.85;0.40;;;;;;;;;;5048828;28;20050;-78
2022/12/31 08:49:25;;;;;;;1.20;0.50;;;;;;;;;;5050877;28;20055;-78
2022/12/31 08:51:52;;;;;;;1.30;0.47;;;;;;;;;;5068667;28;20044;-79
2022/12/31 08:54:18;;;;;;;1.70;0.50;;;;;;;;;;5067727;28;20050;-79
2022/12/31 08:56:59;;;;;;;2.33;0.52;;;;;;;;;;5069814;28;20428;-79
2022/12/31 08:59:34;;;;;;;2.70;0.50;;;;;;;;;;5070283;28;20579;-79
2022/12/31 09:02:00;;;;;;;1.77;0.53;;;;;;;;;;5063464;28;20063;-77
2022/12/31 09:04:42;;;;;;;2.25;0.40;;;;;;;;;;5069493;28;20052;-78
2022/12/31 09:07:10;;;;;;;1.50;0.50;;;;;;;;;;5070257;28;20078;-79
2022/12/31 09:09:56;;;;;;;1.65;0.50;;;;;;;;;;5062866;28;20052;-76
2022/12/31 09:12:28;;;;;;;3.60;0.70;;;;;;;;;;5065616;28;20049;-78
2022/12/31 09:15:02;;;;;;;2.15;0.60;;;;;;;;;;5068087;28;20041;-79
2022/12/31 09:17:43;;;;;;;0.43;0.38;;;;;;;;;;5070128;28;20147;-79
2022/12/31 09:20:20;;;;;;;1.55;0.40;;;;;;;;;;5068606;28;20127;-78
2022/12/31 09:22:46;;;;;;;0.57;0.40;;;;;;;;;;5067636;28;20144;-78
2022/12/31 09:25:14;;;;;;;1.23;0.60;;;;;;;;;;5067240;28;20048;-76
2022/12/31 09:28:13;;;;;;;2.22;0.55;;;;;;;;;;5068270;28;20052;-79
2022/12/31 09:30:45;;;;;;;3.75;0.45;;;;;;;;;;5012091;28;20135;-78
2022/12/31 09:33:31;;;;;;;1.33;0.47;;;;;;;;;;5069035;28;20052;-78
2022/12/31 09:36:01;;;;;;;2.30;0.70;;;;;;;;;;5068270;28;20512;-79
2022/12/31 09:38:42;;;;;;;2.67;0.38;;;;;;;;;;5071002;28;20048;-78
2022/12/31 09:41:15;;;;;;;1.85;0.70;;;;;;;;;;5068952;28;20078;-78
2022/12/31 09:43:47;;;;;;;0.65;0.40;;;;;;;;;;5068851;28;20107;-75
2022/12/31 09:46:23;;;;;;;1.05;0.50;;;;;;;;;;5069837;28;20052;-78
2022/12/31 09:48:59;;;;;;;0.70;0.40;;;;;;;;;;5071306;28;20131;-78
2022/12/31 09:51:30;;;;;;;4.30;0.50;;;;;;;;;;5056067;28;20045;-78
2022/12/31 09:54:12;;;;;;;3.63;0.50;;;;;;;;;;5073467;28;20058;-79
2022/12/31 09:56:42;;;;;;;0.95;0.50;;;;;;;;;;5072626;28;20469;-76
2022/12/31 09:59:17;;;;;;;2.20;0.47;;;;;;;;;;5069002;28;20049;-78
2022/12/31 10:01:44;;;;;;;;;;;;;;;;;;5070965;28;20052;-79
2022/12/31 10:04:29;;;;;;;1.48;0.50;;;;;;;;;;5064403;28;19967;-78
2022/12/31 10:06:58;;;;;;;0.73;0.47;;;;;;;;;;5074883;28;20143;-79
2022/12/31 10:09:38;;;;;;;0.70;0.40;;;;;;;;;;5074055;28;20563;-79
2022/12/31 10:12:23;;;;;;;1.90;0.40;;;;;;;;;;5064517;28;20139;-79
2022/12/31 10:15:08;;;;;;;4.40;0.45;;;;;;;;;;5074462;28;20052;-79
2022/12/31 10:17:52;;;;;;;1.80;0.52;;;;;;;;;;5073999;28;20048;-79
2022/12/31 10:20:21;;;;;;;1.98;0.40;;;;;;;;;;5072381;28;20148;-78
2022/12/31 10:22:48;;;;;;;0.85;0.50;;;;;;;;;;5072892;28;20579;-79
2022/12/31 10:25:23;;;;;;;0.95;0.50;;;;;;;;;;5074831;28;20071;-79
2022/12/31 10:28:17;;;;;;;1.58;0.45;;;;;;;;;;5074629;28;20068;-80
2022/12/31 10:30:49;;;;;;;2.00;0.50;;;;;;;;;;5057041;28;20072;-78
2022/12/31 10:33:17;;;;;;;1.75;0.50;;;;;;;;;;5072538;28;20052;-79
2022/12/31 10:35:49;;;;;;;4.30;0.63;;;;;;;;;;5074012;28;20560;-77
2022/12/31 10:38:19;;;;;;;1.80;0.50;;;;;;;;;;5075707;28;20074;-79
2022/12/31 10:40:48;;;;;;;1.08;0.43;;;;;;;;;;5059506;28;20447;-78
2022/12/31 10:43:33;;;;;;;1.38;0.40;;;;;;;;;;5090870;28;20048;-79
2022/12/31 10:46:25;;;;;;;0.77;0.43;;;;;;;;;;5084064;28;20048;-80
2022/12/31 10:49:01;;;;;;;2.53;0.60;;;;;;;;;;5078554;28;20048;-79
2022/12/31 10:51:27;;;;;;;2.40;0.70;;;;;;;;;;5072027;28;20051;-77
2022/12/31 10:54:12;;;;;;;2.80;0.50;;;;;;;;;;5069818;28;20053;-77
2022/12/31 10:57:14;;;;;;;2.50;0.60;;;;;;;;;;5069595;28;20527;-80
2022/12/31 10:59:59;;;;;;;1.90;0.70;;;;;;;;;;4967776;28;20055;-78
2022/12/31 11:02:31;;;;;;;2.03;0.70;;;;;;;;;;5060151;28;20056;-78
2022/12/31 11:05:16;;;;;;;1.55;0.52;;;;;;;;;;5064568;28;20060;-78
2022/12/31 11:07:43;;;;;;;2.10;0.70;;;;;;;;;;5069072;28;20084;-78
2022/12/31 11:10:09;;;;;;;1.77;0.52;;;;;;;;;;5052898;28;20041;-78
2022/12/31 11:12:41;;;;;;;2.40;0.60;;;;;;;;;;5062644;28;20067;-78
2022/12/31 11:15:30;;;;;;;1.52;0.50;;;;;;;;;;5070658;28;20044;-78
2022/12/31 11:18:08;;;;;;;1.52;0.50;;;;;;;;;;5052964;28;20044;-78
2022/12/31 11:20:55;;;;;;;0.73;0.40;;;;;;;;;;5067422;28;20440;-78
2022/12/31 11:23:44;;;;;;;2.15;0.63;;;;;;;;;;5063861;28;20079;-78
2022/12/31 11:26:29;;;;;;;1.27;0.47;;;;;;;;;;5065923;28;20049;-78
2022/12/31 11:29:02;;;;;;;0.75;0.50;;;;;;;;;;5072185;28;20040;-77
2022/12/31 11:31:39;;;;;;;1.13;0.50;;;;;;;;;;5069218;28;20106;-78
2022/12/31 11:34:24;;;;;;;1.02;0.50;;;;;;;;;;5052732;28;20136;-78
2022/12/31 11:37:09;;;;;;;1.90;0.50;;;;;;;;;;5060712;28;20045;-79
2022/12/31 11:39:42;;;;;;;1.02;0.40;;;;;;;;;;5051935;28;20084;-78
2022/12/31 11:42:20;;;;;;;3.15;0.70;;;;;;;;;;5078210;28;20055;-79
2022/12/31 11:44:59;;;;;;;2.10;0.60;;;;;;;;;;5090185;28;20056;-79
2022/12/31 11:47:26;;;;;;;1.38;0.45;;;;;;;;;;5091631;28;20402;-79
2022/12/31 11:50:11;;;;;;;0.88;0.50;;;;;;;;;;5076364;28;20051;-78
2022/12/31 11:52:58;;;;;;;1.40;0.50;;;;;;;;;;5063093;28;20044;-79
2022/12/31 11:55:31;;;;;;;2.00;0.60;;;;;;;;;;5061269;28;20052;-78
2022/12/31 11:58:00;;;;;;;0.80;0.50;;;;;;;;;;5068976;28;20044;-78
2022/12/31 12:00:29;;;;;;;0.30;0.30;;;;;;;;;;5066235;28;20062;-77
2022/12/31 12:03:00;;;;;;;0.68;0.40;;;;;;;;;;5064391;28;20052;-78
2022/12/31 12:05:27;;;;;;;1.15;0.50;;;;;;;;;;5067578;28;20389;-79
2022/12/31 12:07:54;;;;;;;0.70;0.47;;;;;;;;;;5070428;28;20052;-78
2022/12/31 12:10:21;;;;;;;1.85;0.50;;;;;;;;;;5067658;28;20048;-79
2022/12/31 12:12:47;;;;;;;1.95;0.77;;;;;;;;;;5049368;28;20643;-78
2022/12/31 12:15:19;;;;;;;0.80;0.50;;;;;;;;;;5068113;28;20048;-79
2022/12/31 12:17:48;;;;;;;1.25;0.50;;;;;;;;;;5058329;28;20045;-78
2022/12/31 12:20:17;;;;;;;0.98;0.60;;;;;;;;;;5061593;28;20121;-79
2022/12/31 12:22:51;;;;;;;1.55;0.70;;;;;;;;;;5065598;28;20112;-78
2022/12/31 12:25:19;;;;;;;1.27;0.43;;;;;;;;;;5068334;28;20052;-79
2022/12/31 12:27:45;;;;;;;2.60;0.70;;;;;;;;;;5063694;28;20067;-78
2022/12/31 12:30:26;;;;;;;1.77;0.50;;;;;;;;;;5066436;28;20049;-79
2022/12/31 12:32:52;;;;;;;1.27;0.50;;;;;;;;;;5062480;28;20123;-78
2022/12/31 12:35:23;;;;;;;2.38;0.60;;;;;;;;;;5063743;28;20048;-77
2022/12/31 12:37:57;;;;;;;0.73;0.45;;;;;;;;;;5044381;28;20059;-78
2022/12/31 12:40:24;;;;;;;2.08;0.52;;;;;;;;;;5063775;28;20052;-78
2022/12/31 12:42:59;;;;;;;1.55;0.50;;;;;;;;;;5062914;28;20527;-78
2022/12/31 12:45:27;;;;;;;0.45;0.40;;;;;;;;;;5062091;28;20052;-78
2022/12/31 12:48:01;;;;;;;5.47;0.63;;;;;;;;;;5060921;28;20519;-78
2022/12/31 12:50:37;;;;;;;2.63;0.70;;;;;;;;;;5060773;28;20070;-78
2022/12/31 12:53:03;;;;;;;1.00;0.50;;;;;;;;;;5061921;28;20752;-78
2022/12/31 12:55:51;;;;;;;0.93;0.60;;;;;;;;;;5065058;28;20048;-78
2022/12/31 12:58:36;;;;;;;0.88;0.47;;;;;;;;;;5066162;28;20051;-78
2022/12/31 13:01:33;;;;;;;1.30;0.55;;;;;;;;;;5066644;28;20363;-78
2022/12/31 13:04:18;;;;;;;0.68;0.40;;;;;;;;;;4977631;28;20054;-77
2022/12/31 13:07:09;;;;;;;1.33;0.47;;;;;;;;;;5066128;28;20040;-78
2022/12/31 13:09:54;;;;;;;1.03;0.60;;;;;;;;;;5066530;28;20076;-77
2022/12/31 13:12:37;;;;;;;1.30;0.60;;;;;;;;;;5065450;28;20127;-77
2022/12/31 13:15:28;;;;;;;0.80;0.47;;;;;;;;;;5068849;28;20714;-77
2022/12/31 13:17:54;;;;;;;2.42;0.73;;;;;;;;;;5071111;28;20051;-78
2022/12/31 13:20:45;;;;;;;1.52;0.60;;;;;;;;;;5072636;28;20075;-77
2022/12/31 13:23:20;;;;;;;1.67;0.60;;;;;;;;;;5073266;28;20112;-79
2022/12/31 13:26:05;;;;;;;1.83;0.68;;;;;;;;;;5053930;28;20044;-80
2022/12/31 13:28:32;;;;;;;1.15;0.60;;;;;;;;;;5073511;28;20052;-77
2022/12/31 13:31:01;;;;;;;3.17;0.73;;;;;;;;;;5075386;28;20083;-78
2022/12/31 13:33:35;;;;;;;2.13;0.57;;;;;;;;;;5052382;28;20049;-75
2022/12/31 13:36:04;;;;;;;0.95;0.52;;;;;;;;;;5070676;28;20608;-79
2022/12/31 13:38:33;;;;;;;0.80;0.50;;;;;;;;;;5072272;28;20052;-76
2022/12/31 13:41:02;;;;;;;1.48;0.50;;;;;;;;;;5070439;28;20052;-78
2022/12/31 13:43:48;;;;;;;3.67;0.82;;;;;;;;;;5068917;28;20517;-78
2022/12/31 13:46:35;;;;;;;1.60;0.60;;;;;;;;;;5071701;28;20052;-78
2022/12/31 13:49:04;;;;;;;1.35;0.60;;;;;;;;;;5054890;28;20087;-78
2022/12/31 13:51:36;;;;;;;2.03;0.50;;;;;;;;;;5010485;28;20058;-77
2022/12/31 13:54:05;;;;;;;0.98;0.50;;;;;;;;;;5027522;28;20053;-78
2022/12/31 13:56:35;;;;;;;0.88;0.60;;;;;;;;;;5047680;28;20068;-77
2022/12/31 13:59:02;;;;;;;1.52;0.50;;;;;;;;;;5047712;28;20061;-75
2022/12/31 14:01:33;;;;;;;2.17;1.00;;;;;;;;;;5049713;28;20045;-78
2022/12/31 14:04:03;;;;;;;3.83;0.68;;;;;;;;;;5045886;28;20658;-78
2022/12/31 14:06:42;;;;;;;3.97;0.93;;;;;;;;;;5049389;28;20048;-78
2022/12/31 14:09:13;;;;;;;3.25;0.80;;;;;;;;;;5049301;28;20457;-78
2022/12/31 14:11:47;;;;;;;1.15;0.57;;;;;;;;;;5047472;28;20049;-76
2022/12/31 14:14:19;;;;;;;6.28;1.10;;;;;;;;;;5049631;28;20045;-78
2022/12/31 14:17:04;;;;;;;1.63;0.55;;;;;;;;;;5051215;28;20599;-78
2022/12/31 14:19:36;;;;;;;1.33;0.70;;;;;;;;;;5051609;28;20799;-76
2022/12/31 14:22:14;;;;;;;1.67;0.80;;;;;;;;;;5048607;28;20057;-78
2022/12/31 14:24:46;;;;;;;1.73;0.60;;;;;;;;;;5030447;28;20512;-77
2022/12/31 14:27:16;;;;;;;2.22;0.80;;;;;;;;;;5047584;28;20115;-79
2022/12/31 14:29:45;;;;;;;3.97;1.05;;;;;;;;;;5048608;28;20106;-78
2022/12/31 14:32:12;;;;;;;2.28;0.60;;;;;;;;;;5049491;28;20127;-78
2022/12/31 14:34:59;;;;;;;1.65;0.55;;;;;;;;;;5046293;28;20055;-79
2022/12/31 14:37:49;;;;;;;3.35;0.70;;;;;;;;;;5048456;28;20103;-76
2022/12/31 14:40:21;;;;;;;4.55;0.80;;;;;;;;;;5049281;28;20343;-78
2022/12/31 14:43:06;;;;;;;4.15;0.82;;;;;;;;;;5048221;28;20055;-79
2022/12/31 14:45:50;;;;;;;7.88;0.70;;;;;;;;;;5047419;28;20059;-78
2022/12/31 14:48:25;;;;;;;3.45;0.90;;;;;;;;;;5047535;28;20052;-78
2022/12/31 14:50:51;;;;;;;2.65;0.68;;;;;;;;;;5052112;28;20528;-77
2022/12/31 14:53:21;;;;;;;1.58;0.70;;;;;;;;;;5050125;28;20044;-78
2022/12/31 14:55:56;;;;;;;2.85;0.80;;;;;;;;;;5033334;28;20131;-78
2022/12/31 14:58:28;;;;;;;3.67;0.60;;;;;;;;;;5050496;28;20238;-78
2022/12/31 15:00:59;;;;;;;2.10;0.95;;;;;;;;;;5048645;28;20291;-78
2022/12/31 15:03:34;;;;;;;1.67;0.73;;;;;;;;;;5048535;28;20061;-78
2022/12/31 15:06:04;;;;;;;1.63;0.70;;;;;;;;;;5049349;28;20076;-79
2022/12/31 15:08:33;;;;;;;2.13;0.60;;;;;;;;;;5048859;28;20053;-77
2022/12/31 15:11:02;;;;;;;3.95;1.05;;;;;;;;;;5031343;28;20118;-79
2022/12/31 15:13:45;;;;;;;2.45;0.77;;;;;;;;;;5047512;28;20060;-79
2022/12/31 15:16:21;;;;;;;2.47;0.80;;;;;;;;;;5042256;28;20476;-78
2022/12/31 15:19:01;;;;;;;1.25;0.60;;;;;;;;;;5046690;28;20510;-79
2022/12/31 15:21:48;;;;;;;4.38;1.10;;;;;;;;;;5046623;28;20084;-77
2022/12/31 15:24:23;;;;;;;3.30;0.75;;;;;;;;;;5027608;28;20058;-77